Time;durP1;ratioP1;P1;durP2;ratioP2;P2;SDS_P1;SDS_P2;PMS_P1;PMS_P2;Temp;Humidity;BMP_temperature;BMP_pressure;BME280_temperature;BME280_humidity;BME280_pressure;Samples;Min_cycle;Max_cycle;Signal;HPM_P1;HPM_P2
2023/02/12 00:01:27;;;;;;;25.90;13.60;;;;;;;-0.31;67.48;96560.72;106732;1261;23930;-68
2023/02/12 00:03:56;;;;;;;30.90;15.20;;;;;;;-0.36;67.88;96565.70;106532;1276;22517;-67
2023/02/12 00:06:25;;;;;;;28.70;14.30;;;;;;;-0.37;67.57;96570.34;106658;1276;22527;-67
2023/02/12 00:08:55;;;;;;;27.90;14.50;;;;;;;-0.39;67.89;96568.03;106517;1276;25393;-68
2023/02/12 00:11:27;;;;;;;27.60;13.20;;;;;;;-0.39;67.60;96563.70;106450;1268;25244;-67
2023/02/12 00:13:56;;;;;;;28.20;13.00;;;;;;;-0.37;67.49;96559.10;106585;1276;25461;-67
2023/02/12 00:16:27;;;;;;;26.70;14.60;;;;;;;-0.36;67.45;96555.35;106542;1276;24258;-67
2023/02/12 00:18:57;;;;;;;25.30;14.10;;;;;;;-0.36;67.71;96554.45;106635;1276;24256;-67
2023/02/12 00:21:26;;;;;;;30.60;13.80;;;;;;;-0.38;68.16;96554.23;106631;1276;23247;-67
2023/02/12 00:23:54;;;;;;;25.90;12.70;;;;;;;-0.39;67.86;96549.86;106637;1276;22535;-67
2023/02/12 00:26:22;;;;;;;23.90;12.90;;;;;;;-0.42;68.37;96550.09;106635;1276;22529;-67
2023/02/12 00:28:51;;;;;;;28.50;15.00;;;;;;;-0.45;68.24;96552.42;106462;1276;24223;-67
2023/02/12 00:31:22;;;;;;;24.10;12.30;;;;;;;-0.45;68.47;96547.22;106648;1259;22523;-67
2023/02/12 00:33:50;;;;;;;37.90;18.20;;;;;;;-0.46;68.98;96548.75;106666;1276;22934;-67
2023/02/12 00:36:22;;;;;;;36.50;16.80;;;;;;;-0.46;68.69;96553.77;106643;1276;25406;-67
2023/02/12 00:38:52;;;;;;;28.20;14.60;;;;;;;-0.46;68.93;96550.99;106559;1276;22532;-67
2023/02/12 00:41:22;;;;;;;34.30;16.10;;;;;;;-0.48;69.39;96553.16;106636;1276;22716;-67
2023/02/12 00:43:51;;;;;;;28.80;14.10;;;;;;;-0.50;70.37;96546.67;106673;1276;22537;-67
2023/02/12 00:46:20;;;;;;;27.90;13.90;;;;;;;-0.52;70.06;96544.19;106453;1276;25355;-67
2023/02/12 00:48:49;;;;;;;31.60;15.90;;;;;;;-0.52;69.66;96542.45;106473;1276;22630;-67
2023/02/12 00:51:20;;;;;;;35.20;14.60;;;;;;;-0.53;69.61;96533.10;106677;1276;22521;-67
2023/02/12 00:53:48;;;;;;;35.30;16.30;;;;;;;-0.54;69.52;96531.64;106572;1276;24355;-68
2023/02/12 00:56:16;;;;;;;27.80;14.30;;;;;;;-0.57;70.04;96541.76;106634;1276;22539;-67
2023/02/12 00:58:44;;;;;;;28.20;14.40;;;;;;;-0.60;70.54;96538.66;106415;1276;22523;-67
2023/02/12 01:01:12;;;;;;;26.00;13.30;;;;;;;-0.64;70.20;96542.30;106589;1276;23022;-67
2023/02/12 01:03:41;;;;;;;28.60;15.50;;;;;;;-0.67;71.01;96540.33;106603;1276;24331;-67
2023/02/12 01:06:09;;;;;;;26.00;13.00;;;;;;;-0.69;71.64;96537.28;106610;1276;25207;-67
2023/02/12 01:08:37;;;;;;;32.80;15.50;;;;;;;-0.69;71.71;96541.30;106601;1276;22576;-67
2023/02/12 01:11:06;;;;;;;35.20;16.80;;;;;;;-0.65;72.80;96544.52;106593;1276;25281;-67
2023/02/12 01:13:34;;;;;;;32.60;15.60;;;;;;;-0.61;73.16;96545.88;106539;1270;22537;-67
2023/02/12 01:16:12;;;;;;;29.10;14.00;;;;;;;-0.57;73.09;96547.61;106468;1276;24307;-67
2023/02/12 01:18:41;;;;;;;30.60;15.10;;;;;;;-0.52;72.64;96549.19;106602;1276;25429;-67
2023/02/12 01:21:15;;;;;;;35.40;17.00;;;;;;;-0.49;71.85;96549.31;106640;1276;22777;-67
2023/02/12 01:23:44;;;;;;;35.10;17.90;;;;;;;-0.46;71.39;96538.73;106658;1276;22941;-67
2023/02/12 01:26:14;;;;;;;30.80;17.00;;;;;;;-0.43;71.21;96538.50;106673;1276;22603;-67
2023/02/12 01:28:47;;;;;;;34.10;17.10;;;;;;;-0.40;71.15;96536.52;106492;1276;24264;-67
2023/02/12 01:31:20;;;;;;;32.40;18.00;;;;;;;-0.37;71.19;96529.39;106441;1276;26632;-67
2023/02/12 01:33:52;;;;;;;33.20;17.20;;;;;;;-0.34;71.03;96529.50;106562;1276;24237;-67
2023/02/12 01:36:21;;;;;;;40.20;17.30;;;;;;;-0.32;71.13;96529.06;106622;1276;24379;-67
2023/02/12 01:38:50;;;;;;;34.20;16.80;;;;;;;-0.29;71.11;96535.73;106583;1276;22592;-67
2023/02/12 01:41:21;;;;;;;36.70;17.20;;;;;;;-0.25;71.23;96534.14;106771;1276;22645;-67
2023/02/12 01:44:15;;;;;;;36.70;18.00;;;;;;;-0.26;71.16;96531.71;106427;1276;22608;-67
2023/02/12 01:46:45;;;;;;;32.40;17.50;;;;;;;-0.29;71.37;96532.45;106627;1276;22761;-67
2023/02/12 01:49:36;;;;;;;34.70;16.50;;;;;;;-0.31;71.17;96535.67;106536;1276;24275;-67
2023/02/12 01:52:27;;;;;;;34.50;17.80;;;;;;;-0.32;71.32;96548.41;106636;1276;25318;-67
2023/02/12 01:54:59;;;;;;;37.40;18.40;;;;;;;-0.37;71.51;96556.17;106551;1276;22640;-67
2023/02/12 01:57:32;;;;;;;30.00;16.60;;;;;;;-0.40;71.30;96558.14;106617;1276;25770;-67
2023/02/12 02:00:03;;;;;;;33.80;17.10;;;;;;;-0.42;71.37;96558.56;106359;1276;22537;-67
2023/02/12 02:02:44;;;;;;;30.90;17.00;;;;;;;-0.47;71.53;96554.77;106519;1276;22528;-67
2023/02/12 02:05:22;;;;;;;33.00;17.10;;;;;;;-0.50;71.77;96559.27;106656;1276;24267;-67
2023/02/12 02:07:51;;;;;;;32.40;16.80;;;;;;;-0.55;71.65;96561.88;106639;1276;22530;-68
2023/02/12 02:10:19;;;;;;;34.00;18.00;;;;;;;-0.57;71.65;96563.88;106639;1276;22525;-67
2023/02/12 02:15:36;;;;;;;31.50;16.10;;;;;;;-0.62;72.50;96572.63;106518;1276;22739;-68
2023/02/12 02:18:16;;;;;;;30.70;14.90;;;;;;;-0.65;72.38;96576.67;106686;1276;22784;-67
2023/02/12 02:21:01;;;;;;;31.80;15.80;;;;;;;-0.68;72.22;96582.95;106655;1276;23911;-67
2023/02/12 02:23:38;;;;;;;29.70;15.90;;;;;;;-0.69;72.48;96584.63;106740;1276;25413;-67
2023/02/12 02:26:31;;;;;;;27.90;15.20;;;;;;;-0.70;72.40;96594.25;106747;1276;22535;-67
2023/02/12 02:29:18;;;;;;;26.50;13.60;;;;;;;-0.72;72.71;96591.73;106609;1276;22535;-68
2023/02/12 02:31:54;;;;;;;24.00;13.60;;;;;;;-0.76;73.50;96588.13;106606;1276;22910;-67
2023/02/12 02:35:10;;;;;;;23.60;12.90;;;;;;;-0.79;73.15;96597.16;106589;1276;24293;-67
2023/02/12 02:37:55;;;;;;;25.50;13.20;;;;;;;-0.82;72.85;96591.51;106251;1282;22514;-67
2023/02/12 02:40:28;;;;;;;25.90;14.20;;;;;;;-0.84;73.22;96593.35;106827;1276;25659;-67
2023/02/12 02:43:14;;;;;;;28.20;14.60;;;;;;;-0.86;74.35;96599.48;106808;1276;22526;-67
2023/02/12 02:45:47;;;;;;;29.20;14.30;;;;;;;-0.88;74.01;96600.11;106636;1276;23280;-67
2023/02/12 02:48:34;;;;;;;26.10;13.60;;;;;;;-0.89;74.36;96599.04;106642;1276;25306;-67
2023/02/12 02:51:14;;;;;;;26.60;13.80;;;;;;;-0.93;73.89;96592.66;106393;1276;25293;-67
2023/02/12 02:53:52;;;;;;;32.20;16.10;;;;;;;-0.94;74.73;96598.48;106739;1276;24355;-68
2023/02/12 02:56:23;;;;;;;36.70;18.10;;;;;;;-0.95;74.93;96600.67;106731;1266;22792;-68
2023/02/12 02:59:00;;;;;;;40.20;20.60;;;;;;;-0.96;75.08;96604.94;106761;1276;25226;-68
2023/02/12 03:01:43;;;;;;;37.70;20.50;;;;;;;-1.03;75.20;96608.80;106758;1276;22532;-68
2023/02/12 03:04:23;;;;;;;47.60;24.90;;;;;;;-1.12;74.45;96609.60;106820;1276;22536;-68
2023/02/12 03:07:05;;;;;;;48.30;25.20;;;;;;;-1.19;74.26;96605.69;106563;1276;25326;-68
2023/02/12 03:09:50;;;;;;;49.80;26.30;;;;;;;-1.28;74.05;96606.34;106605;1276;22667;-68
2023/02/12 03:12:30;;;;;;;49.30;25.60;;;;;;;-1.36;74.28;96613.76;106844;1276;24233;-68
2023/02/12 03:15:14;;;;;;;49.00;26.20;;;;;;;-1.40;74.03;96619.48;106953;1276;24270;-68
2023/02/12 03:17:46;;;;;;;52.60;26.10;;;;;;;-1.44;74.16;96619.30;106598;1276;22645;-68
2023/02/12 03:20:22;;;;;;;48.70;26.20;;;;;;;-1.44;74.21;96624.11;106825;1276;25330;-68
2023/02/12 03:23:05;;;;;;;46.30;24.40;;;;;;;-1.46;74.34;96630.92;106535;1276;24353;-68
2023/02/12 03:26:02;;;;;;;48.70;25.00;;;;;;;-1.50;74.25;96630.08;106658;1276;25348;-68
2023/02/12 03:28:34;;;;;;;50.10;24.70;;;;;;;-1.57;73.99;96626.46;106615;1276;24251;-68
2023/02/12 03:31:21;;;;;;;50.60;28.00;;;;;;;-1.60;74.04;96627.71;106795;1276;25508;-68
2023/02/12 03:33:58;;;;;;;52.30;25.80;;;;;;;-1.61;74.22;96631.65;106919;1276;22524;-68
2023/02/12 03:36:45;;;;;;;50.00;24.30;;;;;;;-1.59;73.98;96623.08;106822;1276;24484;-68
2023/02/12 03:39:24;;;;;;;49.80;26.50;;;;;;;-1.59;74.08;96627.93;106685;1276;23338;-69
2023/02/12 03:42:12;;;;;;;53.10;27.40;;;;;;;-1.59;74.25;96626.38;106449;1276;22654;-68
2023/02/12 03:45:00;;;;;;;56.00;29.10;;;;;;;-1.62;74.55;96634.73;106847;1276;23885;-68
2023/02/12 03:47:47;;;;;;;51.90;28.40;;;;;;;-1.64;74.64;96639.61;106863;1276;25217;-68
2023/02/12 03:50:38;;;;;;;56.00;28.50;;;;;;;-1.68;74.52;96645.13;106595;1276;22988;-68
2023/02/12 03:53:06;;;;;;;55.70;29.40;;;;;;;-1.73;74.23;96649.54;106512;1276;26663;-68
2023/02/12 03:55:41;;;;;;;50.30;26.90;;;;;;;-1.78;74.50;96652.27;106481;1276;23901;-68
2023/02/12 03:58:19;;;;;;;56.50;28.70;;;;;;;-1.81;74.41;96654.55;106778;1276;24246;-68
2023/02/12 04:00:48;;;;;;;57.60;29.80;;;;;;;-1.81;74.25;96657.13;106725;1264;22527;-68
2023/02/12 04:03:17;;;;;;;57.40;29.20;;;;;;;-1.80;74.10;96664.23;106673;1276;25258;-68
2023/02/12 04:05:45;;;;;;;51.00;26.70;;;;;;;-1.81;74.63;96663.52;106588;1276;25201;-68
2023/02/12 04:08:13;;;;;;;54.70;28.00;;;;;;;-1.82;74.59;96667.27;106716;1276;22649;-68
2023/02/12 04:10:50;;;;;;;63.90;29.00;;;;;;;-1.82;74.34;96665.70;106680;1276;22636;-68
2023/02/12 04:13:27;;;;;;;57.30;31.20;;;;;;;-1.81;74.24;96667.50;106868;1276;24204;-68
2023/02/12 04:16:23;;;;;;;58.00;30.60;;;;;;;-1.80;74.09;96671.67;106675;1276;25268;-68
2023/02/12 04:18:53;;;;;;;58.60;28.50;;;;;;;-1.79;74.09;96680.54;106838;1276;23891;-68
2023/02/12 04:21:46;;;;;;;48.90;26.50;;;;;;;-1.79;74.13;96682.59;106938;1276;22665;-68
2023/02/12 04:24:37;;;;;;;51.30;29.10;;;;;;;-1.81;74.38;96680.97;106760;1276;22601;-68
2023/02/12 04:27:15;;;;;;;47.20;23.40;;;;;;;-1.84;74.44;96678.70;106594;1276;25456;-68
2023/02/12 04:29:47;;;;;;;59.80;28.90;;;;;;;-1.89;74.63;96675.41;106702;1265;22539;-68
2023/02/12 04:32:35;;;;;;;65.80;31.80;;;;;;;-1.90;74.51;96676.20;106596;1276;23157;-68
2023/02/12 04:35:19;;;;;;;72.50;36.40;;;;;;;-1.87;74.19;96674.13;106872;1276;24043;-68
2023/02/12 04:38:01;;;;;;;73.90;34.10;;;;;;;-1.83;74.17;96671.35;106812;1276;24071;-68
2023/02/12 04:40:30;;;;;;;77.20;35.20;;;;;;;-1.78;74.29;96660.36;106627;1276;25343;-68
2023/02/12 04:42:58;;;;;;;72.00;33.80;;;;;;;-1.72;74.46;96674.09;106938;1276;25235;-68
2023/02/12 04:45:29;;;;;;;66.90;33.70;;;;;;;-1.67;74.68;96684.67;106768;1276;22770;-68
2023/02/12 04:47:58;;;;;;;62.60;32.40;;;;;;;-1.61;74.70;96685.83;106506;1276;22588;-68
2023/02/12 04:50:35;;;;;;;62.90;33.00;;;;;;;-1.55;74.37;96685.23;106630;1276;22523;-68
2023/02/12 04:53:04;;;;;;;59.40;30.10;;;;;;;-1.57;74.22;96684.79;106522;1276;22600;-68
2023/02/12 04:55:32;;;;;;;59.70;29.90;;;;;;;-1.49;74.63;96687.58;106518;1276;23856;-68
2023/02/12 04:58:01;;;;;;;59.40;29.90;;;;;;;-1.37;74.74;96685.00;106510;1276;22570;-68
2023/02/12 05:00:29;;;;;;;58.70;30.50;;;;;;;-1.30;74.33;96680.31;106595;1265;23917;-68
2023/02/12 05:02:57;;;;;;;61.00;31.10;;;;;;;-1.24;74.11;96688.70;106478;1276;22520;-69
2023/02/12 05:05:26;;;;;;;59.30;30.10;;;;;;;-1.26;73.63;96688.11;106665;1276;25470;-67
2023/02/12 05:07:54;;;;;;;53.70;29.40;;;;;;;-1.28;73.86;96691.80;105537;1276;1414699;-68
2023/02/12 05:10:22;;;;;;;58.20;30.50;;;;;;;-1.24;74.15;96696.13;106633;1276;22531;-69
2023/02/12 05:12:52;;;;;;;63.10;30.40;;;;;;;-1.18;73.58;96706.90;106505;1276;22573;-68
2023/02/12 05:15:21;;;;;;;58.40;30.90;;;;;;;-1.24;73.52;96721.30;106473;1276;22524;-67
2023/02/12 05:17:49;;;;;;;56.20;30.90;;;;;;;-1.32;73.80;96726.98;106688;1276;22536;-68
2023/02/12 05:20:18;;;;;;;64.10;31.50;;;;;;;-1.36;74.19;96732.15;106604;1276;25463;-68
2023/02/12 05:22:50;;;;;;;60.70;29.60;;;;;;;-1.29;74.32;96737.98;106472;1274;22520;-68
2023/02/12 05:25:19;;;;;;;52.50;27.90;;;;;;;-1.26;73.99;96738.66;106642;1276;22607;-68
2023/02/12 05:27:47;;;;;;;51.20;26.90;;;;;;;-1.22;74.00;96741.23;106634;1276;22541;-68
2023/02/12 05:30:15;;;;;;;53.50;26.90;;;;;;;-1.22;73.73;96747.33;106472;1276;22534;-68
2023/02/12 05:32:43;;;;;;;56.20;29.40;;;;;;;-1.26;74.11;96755.55;106798;1276;24022;-68
2023/02/12 05:35:11;;;;;;;56.30;29.50;;;;;;;-1.31;74.27;96762.09;106602;1276;22530;-68
2023/02/12 05:37:40;;;;;;;66.30;30.30;;;;;;;-1.36;74.04;96759.27;106713;1276;22655;-68
2023/02/12 05:40:08;;;;;;;57.90;31.60;;;;;;;-1.42;74.19;96766.75;106833;1276;22566;-68
2023/02/12 05:42:37;;;;;;;92.00;44.10;;;;;;;-1.50;74.29;96769.34;106803;1276;22529;-68
2023/02/12 05:45:05;;;;;;;109.00;50.00;;;;;;;-1.53;74.22;96777.66;106794;1276;22597;-68
2023/02/12 05:47:34;;;;;;;109.20;49.40;;;;;;;-1.56;73.88;96778.54;106873;1265;22533;-68
2023/02/12 05:50:02;;;;;;;97.20;44.70;;;;;;;-1.59;73.84;96782.90;106773;1276;25344;-68
2023/02/12 05:52:30;;;;;;;87.90;41.50;;;;;;;-1.64;74.51;96785.08;106648;1276;22520;-68
2023/02/12 05:54:58;;;;;;;102.00;47.60;;;;;;;-1.67;74.68;96790.09;106458;1276;24345;-68
2023/02/12 05:57:26;;;;;;;98.10;46.70;;;;;;;-1.68;75.33;96790.39;106742;1276;25517;-68
2023/02/12 05:59:55;;;;;;;109.70;51.10;;;;;;;-1.68;75.73;96794.86;106657;1276;22524;-68
2023/02/12 06:02:23;;;;;;;105.50;49.60;;;;;;;-1.70;75.57;96795.46;106487;1276;23885;-68
2023/02/12 06:04:52;;;;;;;102.10;46.90;;;;;;;-1.71;75.56;96791.29;106656;1276;22601;-68
2023/02/12 06:07:20;;;;;;;99.70;44.40;;;;;;;-1.70;75.70;96797.16;106625;1276;25578;-68
2023/02/12 06:09:48;;;;;;;129.10;55.50;;;;;;;-1.72;75.74;96800.02;106341;1276;22674;-67
2023/02/12 06:12:16;;;;;;;98.20;42.60;;;;;;;-1.72;75.83;96802.10;106485;1276;22772;-68
2023/02/12 06:14:45;;;;;;;115.00;50.60;;;;;;;-1.75;76.49;96806.95;106888;1276;22654;-68
2023/02/12 06:17:13;;;;;;;120.20;53.40;;;;;;;-1.74;76.34;96812.52;106653;1276;26072;-68
2023/02/12 06:19:41;;;;;;;112.70;52.50;;;;;;;-1.72;76.07;96812.76;106693;1276;22875;-68
2023/02/12 06:22:09;;;;;;;75.20;36.60;;;;;;;-1.71;76.25;96821.45;106788;1276;22531;-68
2023/02/12 06:24:37;;;;;;;83.50;42.50;;;;;;;-1.72;76.40;96826.42;106720;1276;22609;-68
2023/02/12 06:27:05;;;;;;;75.40;37.00;;;;;;;-1.72;76.35;96827.11;106815;1276;23112;-67
2023/02/12 06:29:33;;;;;;;81.40;42.40;;;;;;;-1.72;76.16;96827.11;106838;1255;22566;-67
2023/02/12 06:32:01;;;;;;;86.20;39.80;;;;;;;-1.71;76.54;96830.24;106778;1276;22787;-68
2023/02/12 06:34:30;;;;;;;102.60;51.30;;;;;;;-1.70;76.40;96831.16;106719;1259;22523;-68
2023/02/12 06:36:58;;;;;;;61.40;32.80;;;;;;;-1.67;76.15;96838.21;106718;1276;22523;-67
2023/02/12 06:39:26;;;;;;;51.00;26.90;;;;;;;-1.60;75.86;96841.65;106351;1276;22569;-68
2023/02/12 06:41:55;;;;;;;47.40;23.60;;;;;;;-1.52;75.70;96844.45;106438;1276;25358;-68
2023/02/12 06:44:23;;;;;;;86.10;39.30;;;;;;;-1.46;75.70;96846.30;106592;1276;24243;-68
2023/02/12 06:46:51;;;;;;;108.00;47.60;;;;;;;-1.42;75.88;96848.73;106647;1276;22817;-67
2023/02/12 06:49:20;;;;;;;65.20;32.30;;;;;;;-1.36;75.74;96852.12;106642;1276;22531;-68
2023/02/12 06:51:48;;;;;;;78.90;36.70;;;;;;;-1.29;75.77;96852.11;106627;1276;22537;-68
2023/02/12 06:54:17;;;;;;;80.10;35.50;;;;;;;-1.23;75.75;96858.42;106670;1276;22529;-69
2023/02/12 06:56:45;;;;;;;72.90;34.10;;;;;;;-1.17;75.67;96863.88;106797;1276;25342;-68
2023/02/12 06:59:15;;;;;;;41.50;22.30;;;;;;;-1.11;75.84;96866.45;106622;1276;22537;-68
2023/02/12 07:01:43;;;;;;;43.20;22.20;;;;;;;-1.03;75.03;96862.28;106684;1276;22526;-68
2023/02/12 07:04:12;;;;;;;36.80;20.30;;;;;;;-0.96;74.27;96865.05;106681;1276;25242;-68
2023/02/12 07:06:40;;;;;;;45.20;24.00;;;;;;;-0.87;74.11;96863.92;106580;1276;25271;-68
2023/02/12 07:09:08;;;;;;;47.70;24.60;;;;;;;-0.75;73.96;96864.11;106592;1276;22643;-68
2023/02/12 07:11:36;;;;;;;52.60;25.70;;;;;;;-0.63;73.94;96861.88;106753;1276;23882;-67
2023/02/12 07:14:06;;;;;;;47.60;24.60;;;;;;;-0.49;74.13;96865.94;106634;1276;25323;-68
2023/02/12 07:16:34;;;;;;;54.10;27.20;;;;;;;-0.36;73.50;96857.35;106652;1276;22525;-68
2023/02/12 07:19:02;;;;;;;47.90;25.10;;;;;;;-0.26;72.79;96856.08;106628;1276;22772;-68
2023/02/12 07:21:31;;;;;;;51.30;25.00;;;;;;;-0.14;72.31;96860.04;106674;1276;22638;-68
2023/02/12 07:23:59;;;;;;;48.10;24.60;;;;;;;-0.05;71.98;96863.02;106894;1276;22531;-68
2023/02/12 07:26:27;;;;;;;46.70;25.40;;;;;;;0.03;70.84;96865.92;106476;1276;22543;-68
2023/02/12 07:28:57;;;;;;;49.20;26.40;;;;;;;0.10;71.05;96868.33;106604;1276;24255;-68
2023/02/12 07:31:25;;;;;;;50.20;27.20;;;;;;;0.20;71.16;96869.92;106557;1273;22572;-68
2023/02/12 07:33:56;;;;;;;46.50;24.60;;;;;;;0.25;70.14;96872.94;106676;1273;22587;-68
2023/02/12 07:36:27;;;;;;;48.70;25.70;;;;;;;0.27;69.85;96876.13;106786;1276;25491;-68
2023/02/12 07:38:56;;;;;;;49.90;25.10;;;;;;;0.29;69.61;96870.84;106714;1276;22660;-68
2023/02/12 07:41:27;;;;;;;45.30;25.50;;;;;;;0.31;70.05;96869.91;106735;1276;22530;-68
2023/02/12 07:44:06;;;;;;;46.70;23.50;;;;;;;0.36;69.92;96872.70;106757;1276;22530;-68
2023/02/12 07:46:46;;;;;;;41.10;22.00;;;;;;;0.40;70.04;96888.61;106464;1276;22713;-68
2023/02/12 07:49:18;;;;;;;55.20;28.00;;;;;;;0.42;69.97;96897.52;106640;1276;22653;-67
2023/02/12 07:51:48;;;;;;;58.50;31.90;;;;;;;0.45;69.31;96900.04;106850;1276;24350;-68
2023/02/12 07:54:17;;;;;;;49.20;27.70;;;;;;;0.44;69.13;96901.77;106836;1276;23775;-69
2023/02/12 07:56:47;;;;;;;51.40;27.90;;;;;;;0.45;69.17;96902.28;106549;1276;22609;-68
2023/02/12 07:59:18;;;;;;;48.10;25.30;;;;;;;0.45;68.91;96904.53;106838;1276;22564;-68
2023/02/12 08:01:49;;;;;;;49.50;27.10;;;;;;;0.44;69.10;96911.61;106772;1276;25223;-68
2023/02/12 08:04:23;;;;;;;49.80;25.90;;;;;;;0.47;69.09;96920.41;106577;1276;25355;-68
2023/02/12 08:06:54;;;;;;;46.30;24.10;;;;;;;0.51;69.05;96913.27;106818;1276;24256;-68
2023/02/12 08:09:26;;;;;;;60.40;29.80;;;;;;;0.55;68.89;96921.27;106868;1276;26509;-68
2023/02/12 08:11:54;;;;;;;56.70;30.00;;;;;;;0.58;68.66;96919.99;106654;1273;22531;-68
2023/02/12 08:14:22;;;;;;;60.60;29.70;;;;;;;0.60;68.81;96918.86;106870;1276;22531;-68
2023/02/12 08:16:51;;;;;;;51.80;28.10;;;;;;;0.63;68.68;96919.17;106726;1276;22543;-68
2023/02/12 08:19:19;;;;;;;52.30;27.90;;;;;;;0.67;68.51;96922.77;106608;1260;22555;-68
2023/02/12 08:21:54;;;;;;;55.30;30.00;;;;;;;0.71;68.33;96925.55;106628;1276;25413;-67
2023/02/12 08:24:24;;;;;;;62.80;31.90;;;;;;;0.75;68.23;96927.28;106798;1276;22568;-68
2023/02/12 08:26:52;;;;;;;48.50;27.10;;;;;;;0.76;67.78;96927.83;106881;1276;23925;-69
2023/02/12 08:29:23;;;;;;;49.80;27.40;;;;;;;0.80;67.96;96933.71;106685;1276;22539;-68
2023/02/12 08:31:56;;;;;;;54.10;29.10;;;;;;;0.78;67.75;96931.71;106627;1276;25226;-68
2023/02/12 08:34:28;;;;;;;59.20;28.70;;;;;;;0.80;67.81;96939.06;106621;1276;24356;-68
2023/02/12 08:36:56;;;;;;;55.70;27.80;;;;;;;0.85;67.98;96932.50;106642;1276;24673;-68
2023/02/12 08:39:27;;;;;;;64.70;31.40;;;;;;;0.89;67.67;96936.31;106617;1273;22642;-67
2023/02/12 08:41:57;;;;;;;61.60;29.10;;;;;;;0.90;67.36;96940.68;106647;1276;22657;-68
2023/02/12 08:44:25;;;;;;;58.40;29.70;;;;;;;0.93;67.23;96947.57;106704;1276;22647;-68
2023/02/12 08:46:54;;;;;;;50.00;26.60;;;;;;;0.97;67.29;96949.64;106818;1276;25245;-68
2023/02/12 08:49:28;;;;;;;51.20;27.90;;;;;;;1.06;67.41;96941.33;106862;1276;25431;-68
2023/02/12 08:51:58;;;;;;;51.10;27.10;;;;;;;1.12;66.91;96949.34;106847;1261;24205;-67
2023/02/12 08:54:28;;;;;;;55.30;28.90;;;;;;;1.11;66.65;96961.10;106821;1276;22624;-68
2023/02/12 08:57:01;;;;;;;50.30;27.80;;;;;;;1.15;66.97;96962.98;106568;1276;25494;-68
2023/02/12 08:59:30;;;;;;;51.50;25.80;;;;;;;1.18;66.93;96954.63;106361;1276;22655;-68
2023/02/12 09:01:59;;;;;;;52.70;27.70;;;;;;;1.25;66.93;96964.41;106623;1276;24209;-68
2023/02/12 09:04:28;;;;;;;45.30;24.40;;;;;;;1.29;66.60;96965.83;106614;1276;24241;-68
2023/02/12 09:06:57;;;;;;;51.80;26.60;;;;;;;1.40;66.57;96959.80;106615;1276;22537;-68
2023/02/12 09:09:25;;;;;;;54.40;28.40;;;;;;;1.51;66.32;96963.17;106621;1267;22531;-68
2023/02/12 09:11:53;;;;;;;51.20;27.10;;;;;;;1.61;66.10;96969.10;106688;1276;22655;-68
2023/02/12 09:14:24;;;;;;;55.20;28.70;;;;;;;1.70;65.51;96970.67;106634;1276;22767;-68
2023/02/12 09:16:56;;;;;;;53.40;29.40;;;;;;;1.87;65.80;96977.39;106636;1276;22527;-68
2023/02/12 09:19:24;;;;;;;51.00;27.90;;;;;;;1.97;65.12;96978.44;106626;1276;25517;-68
2023/02/12 09:21:54;;;;;;;50.40;27.20;;;;;;;1.98;64.94;96974.66;106589;1276;22585;-68
2023/02/12 09:24:26;;;;;;;48.60;27.50;;;;;;;2.03;64.84;96968.42;106704;1276;24296;-68
2023/02/12 09:26:55;;;;;;;55.60;28.30;;;;;;;2.13;64.68;96974.68;106629;1276;24295;-68
2023/02/12 09:29:24;;;;;;;50.90;28.60;;;;;;;2.22;64.52;96966.31;106509;1276;24330;-68
2023/02/12 09:31:52;;;;;;;48.40;28.50;;;;;;;2.30;64.24;96973.57;106395;1276;22526;-68
2023/02/12 09:34:20;;;;;;;51.50;27.80;;;;;;;2.57;64.21;96973.63;106603;1276;22554;-67
2023/02/12 09:36:48;;;;;;;53.80;29.10;;;;;;;2.86;62.87;96966.59;106582;1276;22532;-68
2023/02/12 09:39:17;;;;;;;54.90;29.70;;;;;;;2.89;62.36;96967.05;106615;1276;23926;-68
2023/02/12 09:42:16;;;;;;;46.70;26.80;;;;;;;2.86;62.47;96971.98;106559;1276;24206;-67
2023/02/12 09:44:50;;;;;;;44.10;24.40;;;;;;;2.86;62.70;96974.23;106649;1276;24281;-68
2023/02/12 09:47:23;;;;;;;;;;;;;;;2.89;62.41;96982.54;106612;1276;25259;-67
2023/02/12 09:50:01;;;;;;;;;;;;;;;2.85;62.44;96974.92;106563;1276;22768;-68
2023/02/12 09:52:29;;;;;;;45.40;25.90;;;;;;;2.82;62.81;96974.82;106755;1276;22547;-68
2023/02/12 09:54:58;;;;;;;45.20;25.90;;;;;;;2.71;62.94;96971.17;106525;1276;24395;-68
2023/02/12 09:57:32;;;;;;;46.90;26.40;;;;;;;2.77;63.27;96973.41;106592;1276;22689;-67
2023/02/12 10:00:05;;;;;;;45.10;25.80;;;;;;;2.88;63.01;96984.39;106687;1276;25504;-67
2023/02/12 10:02:35;;;;;;;;;;;;;;;2.92;62.89;96990.45;106617;1276;22758;-68
2023/02/12 10:05:05;;;;;;;42.10;22.50;;;;;;;2.96;62.87;96985.71;106625;1276;22542;-71
2023/02/12 10:07:45;;;;;;;43.10;24.60;;;;;;;2.98;62.31;96982.30;106606;1276;25720;-68
2023/02/12 10:10:38;;;;;;;48.20;25.40;;;;;;;3.03;62.19;96990.81;106635;1276;22559;-68
2023/02/12 10:13:16;;;;;;;56.20;29.20;;;;;;;3.09;62.59;97011.88;106678;1276;22543;-67
2023/02/12 10:15:53;;;;;;;42.80;24.50;;;;;;;3.24;62.15;97003.64;106646;1276;24213;-68
2023/02/12 10:18:44;;;;;;;43.70;24.00;;;;;;;3.29;61.69;97002.11;106557;1276;22653;-69
2023/02/12 10:21:27;;;;;;;44.10;25.50;;;;;;;3.49;61.77;97009.50;106646;1276;25265;-68
2023/02/12 10:24:14;;;;;;;41.80;24.20;;;;;;;3.65;61.01;97000.63;106627;1276;24281;-68
2023/02/12 10:26:48;;;;;;;45.80;25.50;;;;;;;3.77;60.73;97001.34;106651;1276;22648;-68
2023/02/12 10:29:21;;;;;;;43.00;24.10;;;;;;;4.10;59.82;96997.43;106651;1276;24290;-67
2023/02/12 10:32:18;;;;;;;35.60;20.90;;;;;;;4.54;59.39;96987.33;106591;1276;24231;-68
2023/02/12 10:34:48;;;;;;;44.70;24.80;;;;;;;4.95;57.48;96976.90;106588;1276;25479;-68
2023/02/12 10:37:38;;;;;;;39.70;22.30;;;;;;;5.39;56.20;96972.57;106530;1276;22667;-68
2023/02/12 10:40:49;;;;;;;40.40;22.90;;;;;;;5.54;55.02;96979.05;106580;1276;23571;-67
2023/02/12 10:43:17;;;;;;;40.10;24.70;;;;;;;5.82;54.84;96982.29;106528;1276;24243;-68
2023/02/12 10:45:45;;;;;;;44.10;25.30;;;;;;;6.03;54.17;96981.20;106570;1276;22601;-68
2023/02/12 10:48:30;;;;;;;43.90;27.30;;;;;;;6.21;53.27;96980.88;106368;1276;23962;-68
2023/02/12 10:51:19;;;;;;;41.70;24.50;;;;;;;6.59;52.84;96967.64;106557;1276;22526;-68
2023/02/12 10:53:48;;;;;;;39.10;25.90;;;;;;;6.65;51.56;96975.45;106531;1276;25841;-69
2023/02/12 10:56:24;;;;;;;40.40;24.40;;;;;;;6.87;51.02;96979.87;106670;1276;22535;-67
2023/02/12 10:58:59;;;;;;;41.90;24.90;;;;;;;7.03;50.42;96986.46;106628;1276;24658;-67
2023/02/12 11:01:34;;;;;;;39.40;25.00;;;;;;;7.27;50.23;96987.04;106569;1276;25220;-67
2023/02/12 11:04:30;;;;;;;37.70;25.20;;;;;;;7.65;49.47;96988.70;106303;1276;23584;-67
2023/02/12 11:07:05;;;;;;;43.10;27.80;;;;;;;7.76;48.43;96996.05;106630;1276;22532;-66
2023/02/12 11:09:44;;;;;;;43.90;27.60;;;;;;;8.13;47.89;96982.55;106495;1276;23097;-67
2023/02/12 11:12:24;;;;;;;41.30;25.80;;;;;;;8.36;47.27;96983.54;106573;1276;22888;-66
2023/02/12 11:15:12;;;;;;;38.50;25.00;;;;;;;8.32;46.44;96986.65;106545;1276;22557;-67
2023/02/12 11:17:43;;;;;;;41.10;26.20;;;;;;;8.21;46.53;96990.02;106550;1276;25349;-67
2023/02/12 11:20:17;;;;;;;37.60;25.90;;;;;;;8.25;46.39;96994.96;106602;1276;22537;-67
2023/02/12 11:23:06;;;;;;;36.50;25.50;;;;;;;8.44;46.68;96998.73;106521;1276;25253;-67
2023/02/12 11:25:36;;;;;;;35.70;24.40;;;;;;;8.66;46.01;96994.10;106636;1276;24070;-67
2023/02/12 11:28:18;;;;;;;37.50;26.00;;;;;;;8.75;45.39;96994.01;106584;1276;22540;-67
2023/02/12 11:30:59;;;;;;;42.80;29.30;;;;;;;8.62;44.95;96993.86;106550;1276;23802;-67
2023/02/12 11:33:33;;;;;;;40.40;27.60;;;;;;;8.85;45.26;96995.88;106548;1276;22540;-67
2023/02/12 11:36:25;;;;;;;42.80;26.90;;;;;;;8.92;44.69;96990.52;106645;1276;24341;-67
2023/02/12 11:38:56;;;;;;;41.50;26.80;;;;;;;8.75;44.90;96995.23;106557;1276;24372;-67
2023/02/12 11:41:29;;;;;;;42.70;27.20;;;;;;;8.83;44.45;96998.14;106585;1276;25098;-68
2023/02/12 11:43:57;;;;;;;41.80;28.00;;;;;;;8.39;45.28;97004.80;106620;1276;22571;-68